Terminal Aerodrome Forecast
Issued by NWS Burlington, VT

Home | Current Version | Previous Version | Text Only | Print | Product List | Glossary On
Versions: 1 2 3 4 5 6 7 8 9 10 11 12
976
FTUS41 KBTV 302320
TAFBTV
TAF
KBTV 302320Z 0100/0124 36006KT P6SM FEW250
     FM010200 00000KT P6SM SCT250
     FM010800 00000KT P6SM OVC060
     FM011200 00000KT 5SM -RA BR OVC050
     FM011500 VRB03KT 3SM -RA BR OVC030
     FM012200 13007KT 3SM -RA BR OVC020=

USA.gov is the U.S. government's official web portal to all federal, state and local government web resources and services.